Time;durP1;ratioP1;P1;durP2;ratioP2;P2;SDS_P1;SDS_P2;PMS_P1;PMS_P2;Temp;Humidity;BMP_temperature;BMP_pressure;BME280_temperature;BME280_humidity;BME280_pressure;Samples;Min_cycle;Max_cycle;Signal;HPM_P1;HPM_P2
2023/12/14 00:02:45;;;;;;;4.43;2.65;;;;;;;-4.05;97.45;100695.50;10441217;28;20044;-61
2023/12/14 00:07:48;;;;;;;4.35;2.80;;;;;;;-4.05;97.12;100698.19;10442925;28;20040;-59
2023/12/14 00:12:52;;;;;;;4.20;3.00;;;;;;;-4.06;96.96;100709.91;10443489;28;20067;-60
2023/12/14 00:17:55;;;;;;;8.85;2.90;;;;;;;-4.07;96.92;100707.44;10432483;28;20045;-60
2023/12/14 00:22:57;;;;;;;4.80;3.00;;;;;;;-4.08;96.54;100711.13;10444538;28;20037;-60
2023/12/14 00:27:59;;;;;;;4.05;2.72;;;;;;;-4.08;96.30;100721.84;10443399;28;20586;-61
2023/12/14 00:33:02;;;;;;;5.50;3.47;;;;;;;-4.08;96.28;100733.38;10443966;28;20029;-61
2023/12/14 00:38:04;;;;;;;5.88;3.40;;;;;;;-3.99;96.16;100726.94;10441405;28;20041;-60
2023/12/14 00:43:07;;;;;;;4.65;3.17;;;;;;;-4.04;95.45;100729.31;10430262;28;20072;-60
2023/12/14 00:48:10;;;;;;;12.50;3.75;;;;;;;-4.02;95.16;100721.94;10438766;28;20037;-60
2023/12/14 00:53:13;;;;;;;5.63;3.15;;;;;;;-4.05;95.01;100724.97;10436383;28;20037;-60
2023/12/14 00:58:15;;;;;;;4.53;2.63;;;;;;;-4.07;94.81;100724.34;10421786;28;20689;-59
2023/12/14 01:03:18;;;;;;;7.15;3.85;;;;;;;-4.11;94.82;100739.13;10439440;28;20041;-60
2023/12/14 01:08:20;;;;;;;5.80;3.33;;;;;;;-4.12;94.54;100740.13;10424766;28;20052;-61
2023/12/14 01:13:23;;;;;;;6.22;3.42;;;;;;;-4.14;94.95;100739.50;10439271;28;20035;-61
2023/12/14 01:18:25;;;;;;;3.97;2.85;;;;;;;-4.14;94.97;100739.50;10434080;28;20049;-60
2023/12/14 01:23:29;;;;;;;6.95;3.63;;;;;;;-4.11;94.81;100752.53;10442980;28;20033;-60
2023/12/14 01:28:31;;;;;;;4.70;3.03;;;;;;;-4.14;94.53;100734.13;10443950;28;20037;-60
2023/12/14 01:33:34;;;;;;;6.72;3.58;;;;;;;-4.12;94.51;100748.19;10442566;28;20029;-60
2023/12/14 01:38:36;;;;;;;5.65;3.50;;;;;;;-4.12;94.24;100750.03;10442322;28;20034;-60
2023/12/14 01:43:38;;;;;;;5.05;3.15;;;;;;;-4.17;94.65;100745.19;10443596;28;20053;-60
2023/12/14 01:48:41;;;;;;;7.03;3.63;;;;;;;-4.13;94.08;100751.88;10441172;28;20037;-60
2023/12/14 01:53:43;;;;;;;4.93;2.97;;;;;;;-4.15;94.09;100753.91;10448471;28;20044;-60
2023/12/14 01:58:45;;;;;;;5.85;3.25;;;;;;;-4.16;94.12;100756.78;10442886;28;20057;-61
2023/12/14 02:03:50;;;;;;;5.15;3.25;;;;;;;-4.22;94.04;100742.25;10442927;28;20052;-61
2023/12/14 02:08:55;;;;;;;6.28;3.10;;;;;;;-4.20;94.46;100747.41;10422591;28;20030;-60
2023/12/14 02:14:03;;;;;;;6.15;3.22;;;;;;;-4.22;94.32;100747.59;10431986;28;20038;-60
2023/12/14 02:19:06;;;;;;;4.87;3.13;;;;;;;-4.23;94.21;100750.47;10440559;28;20047;-60
2023/12/14 02:24:08;;;;;;;6.20;3.35;;;;;;;-4.28;94.33;100759.06;10442160;28;20037;-60
2023/12/14 02:29:10;;;;;;;6.78;3.65;;;;;;;-4.20;94.45;100753.59;10449670;28;20045;-60
2023/12/14 02:34:13;;;;;;;5.70;3.00;;;;;;;-4.27;94.34;100755.34;10428949;28;20394;-61
2023/12/14 02:39:15;;;;;;;4.57;2.97;;;;;;;-4.31;94.03;100760.25;10438179;28;20614;-61
2023/12/14 02:44:17;;;;;;;8.27;3.15;;;;;;;-4.32;93.94;100753.22;10447950;28;20053;-61
2023/12/14 02:49:21;;;;;;;4.53;3.00;;;;;;;-4.31;94.33;100756.75;10436891;28;20514;-61
2023/12/14 02:54:23;;;;;;;5.97;2.83;;;;;;;-4.33;94.39;100764.13;10438477;28;20041;-60
2023/12/14 02:59:26;;;;;;;4.65;2.75;;;;;;;-4.36;94.07;100759.09;10430629;28;20048;-61
2023/12/14 03:04:29;;;;;;;7.07;2.75;;;;;;;-4.39;94.43;100762.97;10426690;28;20046;-61
2023/12/14 03:09:32;;;;;;;6.20;2.90;;;;;;;-4.37;94.60;100769.00;10428080;28;20052;-61
2023/12/14 03:14:35;;;;;;;8.18;3.13;;;;;;;-4.35;94.93;100764.28;10435227;28;20037;-61
2023/12/14 03:19:41;;;;;;;5.30;2.40;;;;;;;-4.40;95.63;100773.88;10435408;28;20045;-61
2023/12/14 03:24:48;;;;;;;6.25;2.92;;;;;;;-4.37;95.96;100777.03;10444403;28;20041;-61
2023/12/14 03:29:50;;;;;;;5.43;2.58;;;;;;;-4.42;95.30;100778.59;10463076;28;20037;-60
2023/12/14 03:34:53;;;;;;;6.57;2.63;;;;;;;-4.38;94.20;100782.56;10440161;28;20053;-60
2023/12/14 03:39:56;;;;;;;7.38;2.88;;;;;;;-4.44;94.81;100784.13;10443546;28;20469;-60
2023/12/14 03:44:59;;;;;;;4.80;2.80;;;;;;;-4.46;94.58;100779.97;10440019;28;20053;-61
2023/12/14 03:50:01;;;;;;;7.80;2.85;;;;;;;-4.58;94.75;100783.06;10446165;28;20048;-60
2023/12/14 03:55:05;;;;;;;4.78;3.28;;;;;;;-4.53;94.44;100787.03;10440783;28;20030;-60
2023/12/14 04:00:12;;;;;;;5.93;3.17;;;;;;;-4.60;94.64;100781.56;10443790;28;20502;-60
2023/12/14 04:05:17;;;;;;;7.63;3.25;;;;;;;-4.62;94.57;100784.44;10440500;28;20041;-60
2023/12/14 04:10:19;;;;;;;5.72;2.50;;;;;;;-4.58;94.38;100791.09;10444000;28;20053;-61
2023/12/14 04:15:22;;;;;;;6.90;3.03;;;;;;;-4.65;94.29;100795.50;10443118;28;20041;-60
2023/12/14 04:20:24;;;;;;;4.75;2.63;;;;;;;-4.62;94.44;100786.28;10441911;28;20045;-61
2023/12/14 04:25:27;;;;;;;6.72;3.33;;;;;;;-4.56;94.42;100797.09;10443277;28;20525;-61
2023/12/14 04:30:29;;;;;;;2.78;1.80;;;;;;;-4.61;94.32;100796.81;10442489;28;20044;-61
2023/12/14 04:35:36;;;;;;;3.95;2.15;;;;;;;-4.75;94.92;100813.63;10441982;28;20048;-60
2023/12/14 04:40:38;;;;;;;8.63;2.90;;;;;;;-4.74;95.33;100801.91;10440122;28;20509;-60
2023/12/14 04:45:41;;;;;;;3.97;2.22;;;;;;;-4.67;95.45;100804.72;10441236;28;20051;-60
2023/12/14 04:50:43;;;;;;;4.00;1.77;;;;;;;-4.88;95.09;100811.53;10443303;28;20037;-60
2023/12/14 04:55:45;;;;;;;7.07;1.90;;;;;;;-4.87;95.37;100809.69;10441818;28;20041;-60
2023/12/14 05:00:48;;;;;;;7.22;2.25;;;;;;;-4.91;95.98;100814.56;10442334;28;20041;-60
2023/12/14 05:05:50;;;;;;;5.40;2.45;;;;;;;-4.95;96.18;100815.94;10441684;28;20033;-61
2023/12/14 05:10:53;;;;;;;5.47;2.78;;;;;;;-5.01;95.77;100822.00;10446108;28;20037;-61
2023/12/14 05:15:55;;;;;;;7.18;2.65;;;;;;;-5.01;95.67;100805.94;10440697;28;20034;-62
2023/12/14 05:20:57;;;;;;;4.88;2.80;;;;;;;-5.02;95.65;100814.16;10442715;28;20052;-60
2023/12/14 05:26:00;;;;;;;2.67;1.60;;;;;;;-4.94;95.45;100827.47;10443014;28;20060;-62
2023/12/14 05:31:03;;;;;;;7.88;3.25;;;;;;;-5.01;95.32;100829.19;10444472;28;20045;-61
2023/12/14 05:36:10;;;;;;;2.53;2.17;;;;;;;-4.97;94.97;100819.81;10441887;28;20501;-61
2023/12/14 05:41:12;;;;;;;6.72;2.83;;;;;;;-5.01;94.82;100830.03;10439756;28;20049;-61
2023/12/14 05:46:22;;;;;;;4.43;2.53;;;;;;;-5.07;94.61;100837.91;10438781;28;20049;-61
2023/12/14 05:51:29;;;;;;;3.58;1.67;;;;;;;-5.06;94.32;100834.22;10444119;28;20041;-61
2023/12/14 05:56:32;;;;;;;4.53;1.90;;;;;;;-5.00;94.44;100845.06;10442311;28;20041;-61
2023/12/14 06:01:34;;;;;;;5.97;2.60;;;;;;;-4.96;94.42;100853.56;10439829;28;20528;-62
2023/12/14 06:06:39;;;;;;;5.28;2.33;;;;;;;-4.98;93.57;100847.56;10442984;28;20037;-61
2023/12/14 06:11:42;;;;;;;5.88;2.25;;;;;;;-4.95;94.01;100857.91;10455691;28;20090;-61
2023/12/14 06:16:44;;;;;;;6.00;2.22;;;;;;;-5.02;93.59;100856.97;10442508;28;20033;-61
2023/12/14 06:21:47;;;;;;;7.07;2.58;;;;;;;-4.99;93.63;100870.00;10442948;28;20052;-61
2023/12/14 06:26:50;;;;;;;4.75;2.30;;;;;;;-5.09;93.56;100866.69;10442794;28;20399;-62
2023/12/14 06:31:52;;;;;;;4.80;2.28;;;;;;;-5.14;93.91;100877.06;10441189;28;20030;-61
2023/12/14 06:36:57;;;;;;;7.30;2.15;;;;;;;-5.23;93.31;100874.41;10441294;28;20041;-61
2023/12/14 06:42:00;;;;;;;8.10;2.70;;;;;;;-5.26;94.98;100872.09;10441085;28;20049;-61
2023/12/14 06:47:02;;;;;;;5.68;2.80;;;;;;;-5.23;95.23;100879.75;10437946;28;20449;-61
2023/12/14 06:52:05;;;;;;;6.80;2.50;;;;;;;-5.22;95.37;100872.56;10440917;28;20414;-61
2023/12/14 06:57:07;;;;;;;4.70;2.55;;;;;;;-5.34;95.65;100885.50;10446373;28;20044;-61
2023/12/14 07:02:10;;;;;;;3.97;1.90;;;;;;;-5.36;95.79;100886.69;10449499;28;20505;-61
2023/12/14 07:07:13;;;;;;;3.28;1.90;;;;;;;-5.37;95.84;100899.22;10450612;28;20045;-61
2023/12/14 07:12:15;;;;;;;4.38;2.17;;;;;;;-5.39;96.22;100911.91;10449658;28;20045;-61
2023/12/14 07:17:17;;;;;;;6.68;2.92;;;;;;;-5.51;96.39;100908.78;10449209;28;20033;-61
2023/12/14 07:22:20;;;;;;;7.18;2.30;;;;;;;-5.51;95.95;100907.94;10449391;28;20045;-61
2023/12/14 07:27:22;;;;;;;5.60;2.55;;;;;;;-5.50;96.41;100913.09;10449790;28;20045;-60
2023/12/14 07:32:24;;;;;;;7.22;2.50;;;;;;;-5.38;96.29;100918.09;10448596;28;20044;-61
2023/12/14 07:37:27;;;;;;;5.88;3.38;;;;;;;-5.50;96.19;100915.78;10448915;28;20045;-60
2023/12/14 07:42:29;;;;;;;4.18;2.45;;;;;;;-5.47;95.89;100914.59;10448366;28;20041;-60
2023/12/14 07:47:31;;;;;;;1.85;1.50;;;;;;;-5.51;96.03;100913.28;10448816;28;20087;-62
2023/12/14 07:52:34;;;;;;;3.33;2.33;;;;;;;-5.48;95.92;100926.31;10447468;28;20044;-60
2023/12/14 07:57:37;;;;;;;3.50;2.28;;;;;;;-5.47;96.02;100920.78;10448504;28;20045;-62
2023/12/14 08:02:39;;;;;;;6.55;1.45;;;;;;;-5.51;95.79;100926.66;10438427;28;20033;-61
2023/12/14 08:07:41;;;;;;;8.65;2.85;;;;;;;-5.49;96.36;100930.81;10439485;28;20041;-61
2023/12/14 08:12:44;;;;;;;7.75;2.38;;;;;;;-5.52;95.86;100931.16;10429507;28;20421;-61
2023/12/14 08:17:46;;;;;;;7.28;2.80;;;;;;;-5.52;95.76;100951.72;10446693;28;20033;-61
2023/12/14 08:22:48;;;;;;;10.90;2.88;;;;;;;-5.55;95.45;100944.88;10446478;28;20044;-61
2023/12/14 08:27:51;;;;;;;5.65;2.55;;;;;;;-5.46;95.67;100945.69;10447143;28;20417;-60
2023/12/14 08:32:53;;;;;;;7.38;2.80;;;;;;;-5.52;95.37;100952.56;10444444;28;20064;-61
2023/12/14 08:37:56;;;;;;;11.10;3.00;;;;;;;-5.58;95.27;100955.88;10446603;28;20448;-61
2023/12/14 08:42:58;;;;;;;6.47;2.78;;;;;;;-5.62;95.41;100967.91;10445660;28;20060;-61
2023/12/14 08:48:01;;;;;;;5.68;2.55;;;;;;;-5.61;96.05;100955.38;10446919;28;20068;-61
2023/12/14 08:53:05;;;;;;;5.15;3.58;;;;;;;-5.60;95.67;100960.56;10449863;28;20041;-61
2023/12/14 08:58:07;;;;;;;9.07;3.72;;;;;;;-5.46;96.42;100959.06;10448123;28;20049;-60
2023/12/14 09:03:10;;;;;;;5.82;2.97;;;;;;;-5.50;96.19;100965.75;10441348;28;20120;-61
2023/12/14 09:08:12;;;;;;;9.93;3.15;;;;;;;-5.41;95.49;100970.06;10444163;28;20042;-61
2023/12/14 09:13:15;;;;;;;10.52;3.15;;;;;;;-5.48;95.17;100961.06;10442905;28;20042;-61
2023/12/14 09:18:17;;;;;;;5.45;2.97;;;;;;;-5.42;94.89;100968.41;10439707;28;20045;-60
2023/12/14 09:23:19;;;;;;;6.13;3.30;;;;;;;-5.50;94.71;100971.09;10438822;28;20041;-60
2023/12/14 09:28:22;;;;;;;7.97;3.17;;;;;;;-5.52;94.69;100967.75;10445397;28;20037;-61
2023/12/14 09:33:24;;;;;;;11.30;3.70;;;;;;;-5.53;94.78;100972.28;10443950;28;20045;-61
2023/12/14 09:38:26;;;;;;;5.38;2.67;;;;;;;-5.54;94.13;100969.78;10442335;28;20046;-62
2023/12/14 09:43:29;;;;;;;7.50;3.17;;;;;;;-5.41;94.37;100982.59;10437125;28;20049;-63
2023/12/14 09:48:31;;;;;;;6.32;3.13;;;;;;;-5.41;94.37;100964.72;10444376;28;20045;-61
2023/12/14 09:53:35;;;;;;;7.97;3.70;;;;;;;-5.33;94.04;100966.56;10445069;28;20612;-60
2023/12/14 09:58:38;;;;;;;10.00;3.08;;;;;;;-5.36;93.87;100962.41;10434192;28;20050;-60
2023/12/14 10:03:40;;;;;;;9.63;4.30;;;;;;;-5.41;93.51;100969.22;10442534;28;20037;-61
2023/12/14 10:08:54;;;;;;;14.02;3.67;;;;;;;-5.32;93.82;100979.75;10443549;28;20041;-59
2023/12/14 10:13:56;;;;;;;8.93;3.67;;;;;;;-5.21;93.67;100982.09;10435806;28;20394;-62
2023/12/14 10:19:00;;;;;;;14.65;3.30;;;;;;;-5.07;92.58;100971.69;10453877;28;20045;-61
2023/12/14 10:24:02;;;;;;;11.52;3.63;;;;;;;-5.04;92.60;100979.34;10442299;28;20042;-61
2023/12/14 10:29:05;;;;;;;11.00;3.67;;;;;;;-5.00;92.07;100972.69;10443016;28;20039;-62
2023/12/14 10:34:07;;;;;;;12.55;4.22;;;;;;;-4.98;91.16;100978.69;10443229;28;20522;-61
2023/12/14 10:39:11;;;;;;;10.85;3.67;;;;;;;-5.08;91.17;100976.19;10442736;28;20159;-62
2023/12/14 10:44:15;;;;;;;14.10;4.00;;;;;;;-5.13;91.45;100964.34;10442400;28;20053;-62
2023/12/14 10:49:17;;;;;;;9.27;4.25;;;;;;;-5.23;91.59;100969.88;10443384;28;20064;-62
2023/12/14 10:54:20;;;;;;;11.32;4.60;;;;;;;-5.24;91.66;100970.88;10471573;28;20041;-62
2023/12/14 10:59:24;;;;;;;7.45;3.55;;;;;;;-5.28;91.92;100965.03;10432105;28;20037;-60
2023/12/14 11:04:27;;;;;;;8.90;3.75;;;;;;;-5.32;91.85;100963.72;10456157;28;20416;-62
2023/12/14 11:09:31;;;;;;;9.32;3.30;;;;;;;-5.24;92.23;100977.06;10453576;28;20536;-62
2023/12/14 11:14:33;;;;;;;19.13;4.72;;;;;;;-5.33;92.14;100970.06;10430227;28;20033;-64
2023/12/14 11:19:36;;;;;;;11.80;3.67;;;;;;;-5.26;92.25;100973.72;10428304;28;20041;-63
2023/12/14 11:24:42;;;;;;;9.15;3.80;;;;;;;-5.40;92.13;100969.06;10436123;28;20041;-62
2023/12/14 11:29:44;;;;;;;12.88;4.03;;;;;;;-5.36;92.37;100967.75;10434768;28;20782;-62
2023/12/14 11:34:47;;;;;;;7.85;3.30;;;;;;;-5.36;92.98;100974.94;10432561;28;20034;-61
2023/12/14 11:39:50;;;;;;;6.80;3.75;;;;;;;-5.46;93.09;100978.59;10436236;28;20555;-60
2023/12/14 11:44:53;;;;;;;6.13;3.42;;;;;;;-5.42;92.98;100984.44;10442085;28;20068;-59
2023/12/14 11:49:56;;;;;;;13.43;4.70;;;;;;;-5.39;93.35;100994.78;10445241;28;20473;-64
2023/12/14 11:54:58;;;;;;;7.70;4.03;;;;;;;-5.37;93.52;100994.66;10433058;28;20611;-61
2023/12/14 12:00:01;;;;;;;12.40;4.63;;;;;;;-5.38;93.11;100998.31;10448340;28;20041;-61
2023/12/14 12:05:03;;;;;;;13.55;4.03;;;;;;;-5.46;93.10;100999.16;10445848;28;20421;-61
2023/12/14 12:10:06;;;;;;;7.80;4.18;;;;;;;-5.42;93.53;101005.84;10441765;28;20432;-63
2023/12/14 12:15:09;;;;;;;17.63;5.30;;;;;;;-5.45;93.91;101011.53;10440833;28;20025;-62
2023/12/14 12:20:12;;;;;;;7.93;4.53;;;;;;;-5.48;93.94;101023.41;10438173;28;21013;-65
2023/12/14 12:25:14;;;;;;;13.82;4.18;;;;;;;-5.51;94.18;101010.38;10440553;28;20029;-63
2023/12/14 12:30:17;;;;;;;19.77;4.63;;;;;;;-5.49;94.40;101015.53;10439130;28;20037;-63
2023/12/14 12:35:19;;;;;;;9.10;4.57;;;;;;;-5.41;94.42;101028.06;10441730;28;20037;-62
2023/12/14 12:40:22;;;;;;;15.20;5.03;;;;;;;-5.42;94.24;101027.22;10439799;28;20052;-62
2023/12/14 12:45:28;;;;;;;13.82;4.28;;;;;;;-5.46;94.21;101040.09;10440832;28;20053;-62
2023/12/14 12:50:30;;;;;;;10.70;3.72;;;;;;;-5.48;94.53;101035.94;10437096;28;20048;-62
2023/12/14 12:55:34;;;;;;;8.85;3.28;;;;;;;-5.54;94.49;101042.78;10441443;28;20037;-62
2023/12/14 13:00:37;;;;;;;7.80;3.15;;;;;;;-5.61;94.67;101033.75;10430492;28;20532;-62
2023/12/14 13:05:40;;;;;;;16.58;4.88;;;;;;;-5.56;94.85;101041.25;10429348;28;20040;-62
2023/12/14 13:10:42;;;;;;;11.00;4.57;;;;;;;-5.51;95.11;101044.28;10438415;28;20041;-61
2023/12/14 13:15:44;;;;;;;8.82;4.00;;;;;;;-5.54;95.04;101039.28;10435851;28;20033;-61
2023/12/14 13:20:47;;;;;;;9.02;3.95;;;;;;;-5.50;95.37;101041.44;10434684;28;20397;-61
2023/12/14 13:25:50;;;;;;;9.23;4.20;;;;;;;-5.51;94.76;101049.63;10419840;28;20033;-61
2023/12/14 13:30:52;;;;;;;10.85;4.30;;;;;;;-5.52;94.91;101048.81;10433334;28;20124;-61
2023/12/14 13:35:55;;;;;;;7.90;3.60;;;;;;;-5.47;95.02;101048.31;10435296;28;20037;-62
2023/12/14 13:40:57;;;;;;;10.32;3.53;;;;;;;-5.51;94.57;101053.16;10435889;28;20040;-62
2023/12/14 13:46:00;;;;;;;13.35;5.15;;;;;;;-5.49;94.62;101053.81;10437679;28;20041;-61
2023/12/14 13:51:02;;;;;;;6.13;3.22;;;;;;;-5.55;94.50;101051.81;10435254;28;20124;-61
2023/12/14 13:56:06;;;;;;;10.55;4.20;;;;;;;-5.57;95.01;101050.28;10433027;28;20041;-60
2023/12/14 14:01:08;;;;;;;12.48;3.97;;;;;;;-5.56;94.83;101047.44;10435657;28;20041;-60
2023/12/14 14:06:11;;;;;;;13.65;3.92;;;;;;;-5.57;94.67;101050.28;10434110;28;20524;-60
2023/12/14 14:11:14;;;;;;;15.48;5.72;;;;;;;-5.61;94.26;101048.94;10433396;28;20516;-60
2023/12/14 14:16:17;;;;;;;13.55;4.70;;;;;;;-5.59;94.68;101058.47;10429113;28;20044;-60
2023/12/14 14:21:20;;;;;;;12.05;5.60;;;;;;;-5.59;94.56;101058.47;10421177;28;20045;-59
2023/12/14 14:26:23;;;;;;;7.50;4.03;;;;;;;-5.62;94.24;101055.31;10425809;28;20045;-62
2023/12/14 14:31:29;;;;;;;8.02;3.45;;;;;;;-5.60;94.76;101056.81;10435937;28;20045;-60
2023/12/14 14:36:32;;;;;;;11.23;3.40;;;;;;;-5.52;94.67;101058.66;10425029;28;20493;-59
2023/12/14 14:41:35;;;;;;;6.38;3.03;;;;;;;-5.59;94.59;101061.16;10422925;28;20040;-60
2023/12/14 14:46:37;;;;;;;15.02;4.30;;;;;;;-5.58;95.58;101070.84;10431844;28;20048;-60
2023/12/14 14:51:39;;;;;;;21.48;4.55;;;;;;;-5.55;95.74;101073.22;10434189;28;20551;-60
2023/12/14 14:56:42;;;;;;;9.27;4.78;;;;;;;-5.57;95.63;101077.84;10435952;28;20044;-60
2023/12/14 15:01:46;;;;;;;10.07;3.55;;;;;;;-5.62;95.40;101063.31;10447539;28;20056;-60
2023/12/14 15:06:49;;;;;;;11.32;4.07;;;;;;;-5.57;95.02;101077.03;10456877;28;20081;-60
2023/12/14 15:11:51;;;;;;;13.32;3.30;;;;;;;-5.65;94.70;101074.34;10437235;28;20513;-60
2023/12/14 15:16:56;;;;;;;10.57;3.25;;;;;;;-5.59;94.66;101074.50;10437573;28;20052;-60
2023/12/14 15:22:01;;;;;;;9.98;3.13;;;;;;;-5.54;94.45;101074.03;10428800;28;20524;-60
2023/12/14 15:27:03;;;;;;;18.15;4.55;;;;;;;-5.58;94.79;101084.19;10446507;28;20041;-60
2023/12/14 15:32:06;;;;;;;7.63;3.53;;;;;;;-5.58;94.86;101083.38;10442539;28;20549;-60
2023/12/14 15:37:09;;;;;;;9.23;3.53;;;;;;;-5.51;94.36;101087.06;10446949;28;20524;-60
2023/12/14 15:42:12;;;;;;;13.18;3.10;;;;;;;-5.59;94.57;101090.56;10445147;28;20033;-60
2023/12/14 15:47:15;;;;;;;13.70;3.28;;;;;;;-5.64;94.20;101092.91;10440878;28;20049;-60
2023/12/14 15:52:17;;;;;;;11.07;4.22;;;;;;;-5.62;94.08;101092.72;10439585;28;20041;-60
2023/12/14 15:57:20;;;;;;;9.02;3.35;;;;;;;-5.70;94.10;101096.25;10443292;28;20923;-60
2023/12/14 16:02:22;;;;;;;11.82;4.03;;;;;;;-5.68;93.89;101091.56;10443744;28;20536;-60
2023/12/14 16:07:26;;;;;;;16.98;4.90;;;;;;;-5.54;94.35;101106.13;10441786;28;20037;-60
2023/12/14 16:12:28;;;;;;;14.35;5.18;;;;;;;-5.51;94.22;101095.09;10437103;28;20045;-60
2023/12/14 16:17:30;;;;;;;8.20;3.35;;;;;;;-5.54;94.01;101093.59;10446742;28;20036;-60
2023/12/14 16:22:34;;;;;;;16.83;4.45;;;;;;;-5.62;93.71;101090.06;10446252;28;20052;-60
2023/12/14 16:27:37;;;;;;;8.77;3.17;;;;;;;-5.65;93.94;101093.91;10442317;28;20041;-60
2023/12/14 16:32:40;;;;;;;9.32;4.45;;;;;;;-5.59;94.06;101113.78;10443637;28;20557;-60
2023/12/14 16:37:42;;;;;;;18.58;4.15;;;;;;;-5.64;94.05;101102.75;10447198;28;20040;-59
2023/12/14 16:42:45;;;;;;;11.50;5.28;;;;;;;-5.73;94.38;101103.72;10439972;28;20046;-59
2023/12/14 16:47:47;;;;;;;11.50;4.25;;;;;;;-5.68;94.13;101109.44;10437020;28;20041;-59
2023/12/14 16:52:49;;;;;;;21.48;5.80;;;;;;;-5.73;94.34;101104.56;10442047;28;20606;-59
2023/12/14 16:57:52;;;;;;;17.00;5.13;;;;;;;-5.72;94.61;101103.59;10435344;28;20132;-59
2023/12/14 17:02:55;;;;;;;9.65;4.40;;;;;;;-5.72;94.32;101106.25;10437850;28;20476;-59
2023/12/14 17:07:57;;;;;;;14.50;4.45;;;;;;;-5.61;94.85;101118.47;10445828;28;20041;-66
2023/12/14 17:12:59;;;;;;;10.65;4.95;;;;;;;-5.70;94.78;101114.13;10442087;28;20041;-65
2023/12/14 17:18:02;;;;;;;13.70;4.30;;;;;;;-5.68;94.67;101112.09;10440817;28;20029;-65
2023/12/14 17:23:04;;;;;;;14.73;4.88;;;;;;;-5.66;94.69;101110.09;10431558;28;20037;-65
2023/12/14 17:28:07;;;;;;;27.30;4.55;;;;;;;-5.73;94.56;101112.56;10428695;28;20045;-62
2023/12/14 17:33:11;;;;;;;8.45;3.97;;;;;;;-5.74;94.72;101102.88;10448681;28;20048;-62
2023/12/14 17:38:13;;;;;;;11.88;4.18;;;;;;;-5.71;94.13;101102.59;10438035;28;20040;-61
2023/12/14 17:43:16;;;;;;;21.58;5.15;;;;;;;-5.66;94.68;101107.44;10434271;28;20527;-63
2023/12/14 17:48:18;;;;;;;19.35;4.75;;;;;;;-5.67;94.96;101097.75;10436259;28;20038;-62
2023/12/14 17:53:21;;;;;;;20.80;5.20;;;;;;;-5.70;94.68;101093.56;10435663;28;20036;-61
2023/12/14 17:58:23;;;;;;;11.05;3.88;;;;;;;-5.69;94.89;101099.75;10433256;28;20057;-62
2023/12/14 18:03:29;;;;;;;18.08;4.90;;;;;;;-5.72;94.62;101092.91;10437239;28;20049;-62
2023/12/14 18:08:32;;;;;;;9.75;3.97;;;;;;;-5.69;94.66;101089.88;10438189;28;20465;-62
2023/12/14 18:13:35;;;;;;;14.52;4.57;;;;;;;-5.74;95.23;101097.53;10438419;28;20428;-62
2023/12/14 18:18:37;;;;;;;14.88;4.32;;;;;;;-5.74;95.07;101091.34;10438920;28;20044;-63
2023/12/14 18:23:40;;;;;;;9.55;5.30;;;;;;;-5.75;95.43;101074.50;10440484;28;20634;-62
2023/12/14 18:28:44;;;;;;;15.23;5.57;;;;;;;-5.63;95.65;101073.19;10439721;28;20432;-62
2023/12/14 18:33:51;;;;;;;11.52;5.40;;;;;;;-5.64;95.46;101073.34;10435595;28;20037;-61
2023/12/14 18:38:54;;;;;;;25.38;8.45;;;;;;;-5.74;95.12;101069.97;10439464;28;20056;-61
2023/12/14 18:43:57;;;;;;;20.42;6.95;;;;;;;-5.85;94.95;101084.50;10435636;28;20064;-61
2023/12/14 18:49:00;;;;;;;17.48;6.95;;;;;;;-5.81;94.96;101085.84;10445311;28;20083;-65
2023/12/14 18:54:03;;;;;;;31.13;8.25;;;;;;;-5.83;94.72;101088.69;10448620;28;20037;-65
2023/12/14 18:59:06;;;;;;;21.27;6.82;;;;;;;-5.85;95.33;101080.00;10452119;28;20044;-65
2023/12/14 19:04:08;;;;;;;29.83;8.23;;;;;;;-5.82;95.03;101070.81;10439495;28;20048;-64
2023/12/14 19:09:11;;;;;;;26.98;8.00;;;;;;;-5.87;94.67;101068.66;10428869;28;20037;-65
2023/12/14 19:14:16;;;;;;;28.90;8.23;;;;;;;-5.85;94.64;101071.97;10446264;28;20049;-65
2023/12/14 19:19:19;;;;;;;20.75;7.65;;;;;;;-5.89;94.66;101081.34;10441318;28;20034;-66
2023/12/14 19:24:22;;;;;;;23.33;7.75;;;;;;;-5.88;94.93;101080.34;10443469;28;20543;-64
2023/12/14 19:29:24;;;;;;;27.10;8.90;;;;;;;-5.88;95.17;101093.69;10444627;28;20037;-64
2023/12/14 19:34:26;;;;;;;29.58;8.25;;;;;;;-5.95;94.99;101098.03;10437861;28;20029;-65
2023/12/14 19:39:33;;;;;;;28.73;8.35;;;;;;;-5.99;95.20;101098.53;10439242;28;20033;-65
2023/12/14 19:44:35;;;;;;;28.02;7.80;;;;;;;-5.96;95.35;101101.69;10444278;28;20056;-66
2023/12/14 19:49:37;;;;;;;24.73;7.03;;;;;;;-5.95;95.06;101106.03;10442123;28;20473;-65
2023/12/14 19:54:41;;;;;;;25.55;7.50;;;;;;;-5.92;94.90;101100.38;10442191;28;20421;-64
2023/12/14 19:59:47;;;;;;;28.50;7.45;;;;;;;-5.99;94.86;101107.38;10442371;28;20038;-63
2023/12/14 20:04:49;;;;;;;24.08;6.97;;;;;;;-5.95;95.06;101107.88;10431739;28;20041;-63
2023/12/14 20:09:53;;;;;;;23.67;7.70;;;;;;;-5.98;95.37;101105.53;10436702;28;20509;-63
2023/12/14 20:14:55;;;;;;;30.05;7.60;;;;;;;-6.01;95.33;101103.19;10440534;28;20044;-63
2023/12/14 20:19:57;;;;;;;34.78;7.43;;;;;;;-5.99;95.38;101112.72;10445244;28;20037;-64
2023/12/14 20:25:00;;;;;;;36.13;8.00;;;;;;;-5.97;94.77;101112.56;10445548;28;20041;-62
2023/12/14 20:30:06;;;;;;;34.08;7.30;;;;;;;-6.03;95.40;101098.03;10432029;28;20049;-63
2023/12/14 20:35:09;;;;;;;28.55;7.30;;;;;;;-6.02;95.17;101105.03;10457218;28;20044;-62
2023/12/14 20:40:13;;;;;;;33.38;9.43;;;;;;;-5.98;95.35;101110.88;10448720;28;20037;-62
2023/12/14 20:45:16;;;;;;;40.08;8.32;;;;;;;-6.10;95.31;101103.16;10450496;28;20064;-62
2023/12/14 20:50:19;;;;;;;26.40;7.72;;;;;;;-6.08;95.46;101116.34;10433631;28;20048;-63
2023/12/14 20:55:22;;;;;;;29.08;6.78;;;;;;;-6.08;95.09;101116.34;10436196;28;20040;-63
2023/12/14 21:00:25;;;;;;;30.48;7.57;;;;;;;-6.02;95.49;101104.19;10424162;28;20037;-63
2023/12/14 21:05:28;;;;;;;27.58;6.82;;;;;;;-5.97;95.31;101102.69;10435433;28;20038;-60
2023/12/14 21:10:30;;;;;;;22.42;6.72;;;;;;;-6.06;95.38;101087.66;10431964;28;20051;-60
2023/12/14 21:15:33;;;;;;;24.38;6.35;;;;;;;-6.04;95.28;101107.03;10436592;28;20034;-60
2023/12/14 21:20:36;;;;;;;23.88;6.20;;;;;;;-6.05;95.01;101099.19;10440882;28;20046;-60
2023/12/14 21:26:01;;;;;;;28.55;6.20;;;;;;;-6.00;94.66;101102.19;10436967;28;20059;-60
2023/12/14 21:31:01;;;;;;;28.92;6.63;;;;;;;-6.05;94.63;101118.72;10444235;28;20037;-60
2023/12/14 21:36:03;;;;;;;21.70;5.20;;;;;;;-6.06;94.27;101113.53;10435228;28;20038;-60
2023/12/14 21:41:06;;;;;;;35.67;7.05;;;;;;;-6.10;94.48;101121.00;10435744;28;20044;-60
2023/12/14 21:46:09;;;;;;;26.70;6.75;;;;;;;-6.10;94.16;101123.69;10439889;28;20524;-61
2023/12/14 21:51:11;;;;;;;26.00;5.88;;;;;;;-6.07;94.26;101120.72;10430704;28;20417;-61
2023/12/14 21:56:14;;;;;;;27.00;6.22;;;;;;;-6.04;94.49;101132.91;10433511;28;20055;-60
2023/12/14 22:01:16;;;;;;;29.25;6.53;;;;;;;-6.15;94.17;101131.34;10421166;28;20048;-58
2023/12/14 22:06:18;;;;;;;32.08;6.88;;;;;;;-6.15;94.51;101144.72;10436334;28;20049;-61
2023/12/14 22:11:21;;;;;;;22.77;5.32;;;;;;;-6.10;94.63;101145.88;10435366;28;20038;-60
2023/12/14 22:16:25;;;;;;;27.60;6.50;;;;;;;-6.21;94.38;101143.53;10437558;28;20040;-60
2023/12/14 22:21:28;;;;;;;35.70;6.80;;;;;;;-6.21;94.37;101146.19;10426337;28;20056;-60
2023/12/14 22:26:30;;;;;;;26.75;5.95;;;;;;;-6.33;94.17;101146.63;10437541;28;20041;-60
2023/12/14 22:31:32;;;;;;;31.17;6.05;;;;;;;-6.42;94.03;101143.94;10434120;28;20037;-63
2023/12/14 22:36:35;;;;;;;37.65;7.18;;;;;;;-6.45;94.36;101119.34;10432916;28;20329;-60
2023/12/14 22:41:38;;;;;;;37.60;6.57;;;;;;;-6.43;94.53;101120.88;10436289;28;20044;-60
2023/12/14 22:46:40;;;;;;;35.33;6.50;;;;;;;-6.47;94.11;101140.03;10430581;28;20054;-60
2023/12/14 22:51:43;;;;;;;24.80;6.40;;;;;;;-6.62;94.57;101144.28;10422400;28;20033;-60
2023/12/14 22:56:45;;;;;;;27.60;5.28;;;;;;;-6.66;94.38;101135.75;10431629;28;20103;-60
2023/12/14 23:01:48;;;;;;;34.50;6.63;;;;;;;-6.68;94.26;101124.41;10436885;28;20049;-61
2023/12/14 23:06:50;;;;;;;27.83;5.07;;;;;;;-6.65;94.63;101132.09;10425773;28;20034;-60